Flight Track Log - Related Links

Times and Time Zones

All times are in EST time to prevent confusion due to time zone crossing. See the N888FM flight status page for this flight to view local times or setup timezone preferences in your user account.

Time Position Orientation Groundspeed Altitude Reporting Facility
EST Latitude Longitude Course Direction KTS MPH feet Rate Location/Type
Thu 05:06:17 PM 28.4333 -81.3167 360° North 138 159 500  Level Orlando TRACON
Thu 05:06:47 PM 28.4500 -81.3167 360° North 155 178 1,700 2,067 Climbing Orlando TRACON
Thu 05:07:47 PM 28.5000 -81.3167 360° North 192 221 3,600 1,785 Climbing Orlando TRACON
Thu 05:08:48 PM 28.5667 -81.3167 360° North 200 230 5,300 1,587 Climbing Orlando TRACON
Thu 05:09:48 PM 28.6167 -81.3000 16° North 222 255 6,800 1,450 Climbing Orlando TRACON
Thu 05:10:48 PM 28.6833 -81.3000 360° North 230 265 8,200 1,289 Climbing Orlando TRACON
Thu 05:11:49 PM 28.7500 -81.3167 348° North 236 272 9,400 1,214 Climbing Orlando TRACON
Thu 05:13:41 PM 28.8772 -81.3325 354° North 240 276 11,700 907 Climbing Jacksonville Center
Thu 05:14:41 PM 28.9461 -81.3408 354° North 240 276 12,000 149 Climbing Jacksonville Center
Thu 05:15:42 PM 29.0256 -81.3514 353° North 258 297 12,000 397 Level Jacksonville Center
Thu 05:16:42 PM 29.1028 -81.3622 353° North 269 310 12,800 900 Climbing Jacksonville Center
Thu 05:17:42 PM 29.1678 -81.3825 345° North 269 310 13,800 1,000 Climbing Jacksonville Center
Thu 05:18:42 PM 29.2369 -81.3981 349° North 256 295 14,800 1,000 Climbing Jacksonville Center
Thu 05:19:42 PM 29.3058 -81.4114 350° North 251 289 15,800 1,008 Climbing Jacksonville Center
Thu 05:20:41 PM 29.3728 -81.4175 355° North 251 289 16,800 1,008 Climbing Jacksonville Center
Thu 05:21:41 PM 29.4397 -81.4261 354° North 245 282 17,800 793 Climbing Jacksonville Center
Thu 05:22:42 PM 29.5067 -81.4322 355° North 240 276 18,400 595 Climbing Jacksonville Center
Thu 05:23:42 PM 29.5756 -81.4383 356° North 240 276 19,000 300 Climbing Jacksonville Center
Thu 05:24:42 PM 29.6486 -81.4444 356° North 245 282 19,000  Level Jacksonville Center
Thu 05:25:41 PM 29.7281 -81.4528 355° North 258 297 19,000 202 Level Jacksonville Center
Thu 05:26:41 PM 29.8056 -81.4589 356° North 277 319 19,400 496 Climbing Jacksonville Center
Thu 05:27:42 PM 29.8786 -81.4672 354° North 277 319 20,000 650 Climbing Jacksonville Center
Thu 05:28:41 PM 29.9475 -81.4736 355° North 265 305 20,700 650 Climbing Jacksonville Center
Thu 05:29:42 PM 30.0144 -81.4797 355° North 254 292 21,300 545 Climbing Jacksonville Center
Thu 05:30:42 PM 30.0792 -81.4836 357° North 237 273 21,800 600 Climbing Jacksonville Center
Thu 05:31:42 PM 30.1439 -81.4922 353° North 232 267 22,500 600 Climbing Jacksonville Center
Thu 05:32:42 PM 30.2108 -81.4914 North 232 267 23,000 500 Climbing Jacksonville Center
Thu 05:33:42 PM 30.2794 -81.4806 North 237 273 23,500 450 Climbing Jacksonville Center
Thu 05:34:42 PM 30.3525 -81.4700 North 248 285 23,900 504 Climbing Jacksonville Center
Thu 05:35:41 PM 30.4256 -81.4592 North 259 298 24,500 550 Climbing Jacksonville Center
Thu 05:36:42 PM 30.4986 -81.4508 North 259 298 25,000 250 Climbing Jacksonville Center
Thu 05:37:41 PM 30.5736 -81.4378 North 259 298 25,000  Level Jacksonville Center
Thu 05:38:41 PM 30.6547 -81.4244 North 272 313 25,000  Level Jacksonville Center
Thu 05:39:42 PM 30.7361 -81.4133 North 283 326 25,000  Level Jacksonville Center
Thu 05:40:41 PM 30.8214 -81.4000 North 295 339 25,000  Level Jacksonville Center
Thu 05:41:41 PM 30.9050 -81.3892 North 295 339 25,000  Level Jacksonville Center
Thu 05:42:42 PM 30.9903 -81.3756 North 300 345 25,000  Level Jacksonville Center
Thu 05:43:42 PM 31.0758 -81.3644 North 300 345 25,000  Level Jacksonville Center
Thu 05:44:42 PM 31.1572 -81.3533 North 300 345 25,000  Level Jacksonville Center
Thu 05:45:42 PM 31.2406 -81.3400 North 294 338 25,000  Level Jacksonville Center
Thu 05:46:42 PM 31.3197 -81.3264 North 289 333 25,000  Level Jacksonville Center
Thu 05:47:42 PM 31.3989 -81.3153 North 289 333 25,000  Level Jacksonville Center
Thu 05:48:42 PM 31.4739 -81.2994 10° North 295 339 25,000  Level Jacksonville Center
Thu 05:49:42 PM 31.5608 -81.2517 25° Northeast 301 346 25,000  Level Jacksonville Center
Thu 05:50:42 PM 31.6417 -81.2111 23° Northeast 315 362 25,000  Level Jacksonville Center
Thu 05:51:42 PM 31.7164 -81.1731 23° Northeast 309 356 25,000  Level Jacksonville Center
Thu 05:52:42 PM 31.8036 -81.1275 24° Northeast 314 361 25,000  Level Jacksonville Center
Thu 05:53:42 PM 31.8739 -81.0872 26° Northeast 314 361 25,000  Level Jacksonville Center
Thu 05:54:42 PM 31.9589 -81.0414 25° Northeast 309 356 25,000  Level Jacksonville Center
Thu 05:55:42 PM 32.0375 -81.0006 24° Northeast 309 356 25,000  Level Jacksonville Center
Thu 05:56:41 PM 32.1164 -80.9572 25° Northeast 309 356 25,000  Level Jacksonville Center
Thu 05:57:41 PM 32.1928 -80.9164 24° Northeast 309 356 25,000  Level Jacksonville Center
Thu 05:58:42 PM 32.2633 -80.8781 25° Northeast 303 349 25,000  Level Jacksonville Center
Thu 05:59:42 PM 32.3503 -80.8317 24° Northeast 303 349 25,000  Level Jacksonville Center
Thu 06:00:42 PM 32.4247 -80.7908 25° Northeast 314 361 25,000  Level Jacksonville Center
Thu 06:01:42 PM 32.5075 -80.7444 25° Northeast 314 361 25,000  Level Jacksonville Center
Thu 06:02:42 PM 32.5900 -80.7006 24° Northeast 314 361 25,000  Level Jacksonville Center
Thu 06:03:42 PM 32.6708 -80.6567 25° Northeast 314 361 25,000  Level Jacksonville Center
Thu 06:04:42 PM 32.7556 -80.6103 25° Northeast 314 361 25,000  Level Jacksonville Center
Thu 06:05:42 PM 32.8383 -80.5661 24° Northeast 314 361 25,000  Level Jacksonville Center
Thu 06:06:41 PM 32.9208 -80.5219 24° Northeast 314 361 25,000  Level Jacksonville Center
Thu 06:07:42 PM 33.0056 -80.4750 25° Northeast 314 361 25,000  Level Jacksonville Center
Thu 06:08:42 PM 33.0903 -80.4281 25° Northeast 319 367 25,000  Level Jacksonville Center
Thu 06:09:41 PM 33.1853 -80.3783 24° Northeast 328 377 25,000  Level Jacksonville Center
Thu 06:10:42 PM 33.2594 -80.3364 25° Northeast 334 384 25,000  Level Jacksonville Center
Thu 06:11:42 PM 33.3464 -80.2892 24° Northeast 334 384 25,000  Level Jacksonville Center
Thu 06:12:42 PM 33.4289 -80.2419 26° Northeast 334 384 25,000  Level Jacksonville Center
Thu 06:13:41 PM 33.5133 -80.1947 25° Northeast 334 384 25,000  Level Jacksonville Center
Thu 06:14:42 PM 33.5978 -80.1472 25° Northeast 334 384 25,000  Level Jacksonville Center
Thu 06:15:41 PM 33.6825 -80.0997 25° Northeast 334 384 25,000  Level Jacksonville Center
Thu 06:16:42 PM 33.7669 -80.0494 26° Northeast 334 384 25,000  Level Jacksonville Center
Thu 06:17:42 PM 33.8556 -80.0017 24° Northeast 334 384 25,000  Level Jacksonville Center
Thu 06:18:42 PM 33.9419 -79.9536 25° Northeast 334 384 25,000  Level Jacksonville Center
Thu 06:19:41 PM 34.0286 -79.9058 25° Northeast 334 384 25,000  Level Jacksonville Center
Thu 06:20:42 PM 34.1150 -79.8550 26° Northeast 334 384 25,000  Level Jacksonville Center
Thu 06:21:42 PM 34.2014 -79.8044 26° Northeast 340 391 25,000  Level Jacksonville Center
Thu 06:24:13 PM 34.4169 -79.6828 25° Northeast 348 400 25,000  Level Washington Center
Thu 06:25:14 PM 34.5061 -79.6344 24° Northeast 348 400 25,000  Level Washington Center
Thu 06:26:12 PM 34.5914 -79.5831 26° Northeast 342 394 25,000  Level Washington Center
Thu 06:27:13 PM 34.6783 -79.5394 22° Northeast 342 394 25,000  Level Washington Center
Thu 06:28:14 PM 34.7672 -79.4981 21° North 337 388 25,000  Level Washington Center
Thu 06:29:15 PM 34.8564 -79.4569 21° North 337 388 25,000  Level Washington Center
Thu 06:30:12 PM 34.9431 -79.4181 20° North 337 388 25,000  Level Washington Center
Thu 06:31:13 PM 35.0319 -79.3792 20° North 337 388 25,000  Level Washington Center
Thu 06:32:14 PM 35.1208 -79.3375 21° North 337 388 25,000  Level Washington Center
Thu 06:33:12 PM 35.2056 -79.2983 21° North 332 382 25,000  Level Washington Center
Thu 06:34:13 PM 35.2944 -79.2567 21° North 332 382 25,000  Level Washington Center
Thu 06:35:14 PM 35.3919 -79.2100 21° North 339 390 25,000  Level Washington Center
Thu 06:36:14 PM 35.4722 -79.1728 21° North 339 390 25,000  Level Washington Center
Thu 06:37:12 PM 35.5697 -79.1286 20° North 333 383 25,000  Level Washington Center
Thu 06:38:13 PM 35.6586 -79.0867 21° North 334 384 25,000  Level Washington Center
Thu 06:39:14 PM 35.7494 -79.0444 21° North 334 384 25,000  Level Washington Center
Thu 06:40:14 PM 35.8383 -78.9997 22° Northeast 334 384 25,000  Level Washington Center
Thu 06:41:12 PM 35.9294 -78.9575 21° North 334 384 25,000  Level Washington Center
Thu 06:42:13 PM 36.0203 -78.9150 21° North 339 390 25,000  Level Washington Center
Thu 06:43:13 PM 36.1089 -78.8750 20° North 339 390 25,000  Level Washington Center
Thu 06:44:13 PM 36.2019 -78.8275 22° Northeast 339 390 25,000  Level Washington Center
Thu 06:45:14 PM 36.2931 -78.7850 21° North 339 390 25,000  Level Washington Center
Thu 06:46:12 PM 36.3839 -78.7422 21° North 344 396 25,000  Level Washington Center
Thu 06:47:12 PM 36.4747 -78.6967 22° Northeast 344 396 25,000  Level Washington Center
Thu 06:48:14 PM 36.5656 -78.6539 21° North 344 396 25,000  Level Washington Center
Thu 06:49:12 PM 36.6564 -78.6108 21° North 349 402 25,000  Level Washington Center
Thu 06:50:12 PM 36.7472 -78.5625 23° Northeast 349 402 25,000  Level Washington Center
Thu 06:51:13 PM 36.8400 -78.5194 20° North 349 402 25,000  Level Washington Center
Thu 06:52:13 PM 36.9311 -78.4708 23° Northeast 354 407 25,000  Level Washington Center
Thu 06:53:14 PM 37.0153 -78.4325 20° North 354 407 25,000  Level Washington Center
Thu 06:54:14 PM 37.1083 -78.3864 22° Northeast 354 407 25,000  Level Washington Center
Thu 06:55:12 PM 37.2031 -78.3403 21° North 354 407 25,000  Level Washington Center
Thu 06:56:13 PM 37.3044 -78.2917 21° North 354 407 25,000  Level Washington Center
Thu 06:57:13 PM 37.3953 -78.2453 22° Northeast 354 407 25,000  Level Washington Center
Thu 06:58:14 PM 37.4900 -78.2014 20° North 354 407 25,000  Level Washington Center
Thu 06:59:14 PM 37.5681 -78.1594 23° Northeast 354 407 25,000  Level Washington Center
Thu 07:00:12 PM 37.6608 -78.1153 21° North 349 402 25,000  Level Washington Center
Thu 07:01:12 PM 37.7536 -78.0658 23° Northeast 354 407 25,000  Level Washington Center
Thu 07:02:13 PM 37.8442 -78.0217 21° North 354 407 25,000  Level Washington Center
Thu 07:03:13 PM 37.9369 -77.9747 22° Northeast 354 407 25,000  Level Washington Center
Thu 07:04:11 PM 38.0378 -77.9278 20° North 354 407 25,000  Level Washington Center
Thu 07:05:12 PM 38.1306 -77.8778 23° Northeast 354 407 25,000  Level Washington Center
Thu 07:06:12 PM 38.2253 -77.8306 21° North 354 407 25,000  Level Washington Center
Thu 07:07:13 PM 38.3181 -77.7856 21° North 354 407 25,000  Level Washington Center
Thu 07:08:14 PM 38.4064 -77.7406 22° Northeast 354 407 25,000  Level Washington Center
Thu 07:09:12 PM 38.4989 -77.6928 22° Northeast 354 407 25,000  Level Washington Center
Thu 07:10:13 PM 38.5914 -77.6450 22° Northeast 354 407 25,000  Level Washington Center
Thu 07:11:13 PM 38.6842 -77.5969 22° Northeast 354 407 25,000  Level Washington Center
Thu 07:12:14 PM 38.7744 -77.5489 23° Northeast 354 407 25,000  Level Washington Center
Thu 07:13:12 PM 38.8586 -77.5058 22° Northeast 359 413 25,000  Level Washington Center
Thu 07:14:12 PM 38.9508 -77.4681 18° North 354 407 25,000  Level Washington Center
Thu 07:15:12 PM 39.0364 -77.4675 360° North 335 386 25,000  Level Washington Center
Thu 07:16:13 PM 39.1197 -77.4644 North 315 362 25,000  Level Washington Center
Thu 07:17:14 PM 39.2053 -77.4639 360° North 304 350 25,000  Level Washington Center
Thu 07:18:12 PM 39.2908 -77.4606 North 304 350 25,000  Level Washington Center
Thu 07:19:13 PM 39.3783 -77.4603 360° North 309 356 25,000  Level Washington Center
Thu 07:21:12 PM 39.5547 -77.4572 North 308 354 25,000  Level New York Center
Thu 07:22:13 PM 39.6425 -77.4575 360° North 308 354 25,000  Level New York Center
Thu 07:23:12 PM 39.7303 -77.4550 North 313 360 25,000  Level New York Center
Thu 07:24:13 PM 39.8181 -77.4500 North 313 360 25,000  Level New York Center
Thu 07:25:12 PM 39.9122 -77.4047 20° North 320 368 25,000  Level New York Center
Thu 07:26:12 PM 40.0028 -77.3536 23° Northeast 337 388 25,000  Level New York Center
Thu 07:27:12 PM 40.0975 -77.3028 22° Northeast 347 399 25,000  Level New York Center
Thu 07:28:12 PM 40.1964 -77.2469 23° Northeast 347 399 25,000  Level New York Center
Thu 07:29:12 PM 40.2889 -77.1931 24° Northeast 347 399 25,000  Level New York Center
Thu 07:30:12 PM 40.3725 -77.1489 22° Northeast 347 399 25,000  Level New York Center
Thu 07:31:12 PM 40.4739 -77.0900 24° Northeast 352 405 25,000  Level New York Center
Thu 07:32:12 PM 40.5536 -77.0400 25° Northeast 352 405 25,000 -800 Level New York Center
Thu 07:33:12 PM 40.6461 -76.9828 25° Northeast 352 405 23,400 -1,550 Descending New York Center
Thu 07:34:12 PM 40.7347 -76.9250 26° Northeast 352 405 21,900 -1,450 Descending New York Center
Thu 07:35:12 PM 40.8206 -76.8753 24° Northeast 352 405 20,500 -1,600 Descending New York Center
Thu 07:36:12 PM 40.9133 -76.8175 25° Northeast 345 397 18,700 -1,400 Descending New York Center
Thu 07:37:12 PM 40.9800 -76.7739 26° Northeast 322 371 17,700 -1,250 Descending New York Center
Thu 07:38:12 PM 41.0553 -76.7256 26° Northeast 309 356 16,200 -1,300 Descending New York Center
Thu 07:39:12 PM 41.1306 -76.6800 25° Northeast 301 346 15,100 -550 Descending New York Center
Thu 07:40:12 PM 41.2061 -76.6258 28° Northeast 281 323 15,100  Level New York Center
Thu 07:41:12 PM 41.2772 -76.5822 25° Northeast 281 323 15,100  Level New York Center
Thu 07:42:12 PM 41.3458 -76.5383 26° Northeast 276 318 15,100  Level New York Center
Thu 07:43:12 PM 41.4103 -76.4997 24° Northeast 276 318 15,100  Level New York Center
Thu 07:44:12 PM 41.4878 -76.4481 27° Northeast 276 318 15,100 -250 Level New York Center
Thu 07:45:12 PM 41.5586 -76.4042 25° Northeast 276 318 14,600 -850 Descending New York Center
Thu 07:46:12 PM 41.6317 -76.3575 26° Northeast 282 325 13,400 -1,250 Descending New York Center
Thu 07:47:12 PM 41.6897 -76.3181 27° Northeast 276 318 12,100 -1,200 Descending New York Center
Thu 07:48:12 PM 41.7542 -76.2761 26° Northeast 266 306 11,000 -1,300 Descending New York Center
Thu 07:49:12 PM 41.8250 -76.2292 26° Northeast 256 295 9,500 -1,450 Descending New York Center
Thu 07:50:12 PM 41.8892 -76.1897 25° Northeast 251 289 8,100 -1,350 Descending New York Center
Thu 07:51:12 PM 41.9242 -76.1092 60° Northeast 245 282 6,800 -1,350 Descending New York Center
Thu 07:52:12 PM 41.9447 -76.0214 72° East 256 295 5,400 -1,350 Descending New York Center
Thu 07:53:12 PM 41.9675 -75.9283 72° East 263 303 4,100 -700 Descending New York Center
Thu 07:54:12 PM 41.9919 -75.8439 69° East 237 273 4,000 -50 Descending New York Center
Thu 07:55:12 PM 42.0339 -75.8386 North 131 151 4,000  Level New York Center
Thu 07:56:12 PM 42.0661 -75.8636 330° Northwest 126 145 4,000  Level New York Center
Thu 07:57:12 PM 42.1000 -75.8942 326° Northwest 138 159 4,000 -300 Level New York Center
Thu 07:58:12 PM 42.1344 -75.9192 332° Northwest 144 166 3,400 -600 Descending New York Center
Thu 08:00:00 PM 42.2000 -75.9667 329° Northwest  Level FlightAware Approximate
Thu 08:07:00 PM 42.2084 -75.9796 329° Northwest  Level Estimated
Thu 08:08:00 PM 42.2084 -75.9796 329° Northwest  Level Estimated
Thu 08:09:00 PM 42.2084 -75.9796 329° Northwest  Level Estimated

Login

Don't have an account? Register now (free) for customized features, flight alerts, and more!